createdAt,value
2022-12-25T00:27:39.617Z,444
2022-12-25T00:47:39.788Z,449
2022-12-25T01:07:53.692Z,457
2022-12-25T01:27:46.740Z,461
2022-12-25T01:47:39.657Z,459
2022-12-25T02:07:39.819Z,461
2022-12-25T02:47:39.874Z,455
2022-12-25T04:07:40.026Z,456
2022-12-25T04:27:40.055Z,452
2022-12-25T04:47:47.127Z,451
2022-12-25T05:07:40.150Z,453
2022-12-25T05:27:40.339Z,454
2022-12-25T05:47:47.181Z,447
2022-12-25T06:07:47.222Z,444
2022-12-25T06:27:54.163Z,440
2022-12-25T06:47:40.293Z,443
2022-12-25T07:07:40.320Z,423
2022-12-25T07:27:40.337Z,430
2022-12-25T07:47:40.391Z,426
2022-12-25T08:27:40.452Z,433
2022-12-25T09:07:47.531Z,442
2022-12-25T09:27:47.556Z,442
2022-12-25T09:47:54.786Z,441
2022-12-25T10:07:40.628Z,441
2022-12-25T10:27:47.683Z,445
2022-12-25T11:07:40.732Z,445
2022-12-25T11:47:40.850Z,449
2022-12-25T12:07:40.935Z,453
2022-12-25T12:27:57.285Z,458
2022-12-25T12:47:47.908Z,458
2022-12-25T13:07:40.813Z,460
2022-12-25T13:27:40.940Z,464
2022-12-25T13:47:53.198Z,477
2022-12-25T14:27:41.075Z,490
2022-12-25T15:07:48.102Z,489
2022-12-25T15:27:41.136Z,491
2022-12-25T15:47:48.230Z,488
2022-12-25T16:07:48.205Z,485
2022-12-25T16:27:41.237Z,475
2022-12-25T16:47:41.173Z,468
2022-12-25T17:07:48.301Z,469
2022-12-25T17:47:48.388Z,467
2022-12-25T18:07:48.392Z,480
2022-12-25T19:07:55.540Z,478
2022-12-25T19:27:41.523Z,478
2022-12-25T19:47:41.574Z,472
2022-12-25T20:07:41.479Z,470
2022-12-25T20:27:41.604Z,472
2022-12-25T20:47:41.645Z,463
2022-12-25T21:07:41.666Z,461
2022-12-25T21:27:41.716Z,459
2022-12-25T21:48:00.477Z,457
2022-12-25T22:07:41.768Z,460
2022-12-25T22:27:41.842Z,458
2022-12-25T22:47:41.936Z,458
2022-12-25T23:07:41.813Z,461
2022-12-25T23:27:41.888Z,464
2022-12-25T23:47:41.925Z,468
